sensor_id;sensor_type;location;lat;lon;timestamp;P1;durP1;ratioP1;P2;durP2;ratioP2
6105;SDS011;3083;51.508;7.966;2024-01-06T00:01:30;13.43;;;6.90;;
6105;SDS011;3083;51.508;7.966;2024-01-06T00:03:57;14.80;;;7.33;;
6105;SDS011;3083;51.508;7.966;2024-01-06T00:06:24;12.63;;;6.47;;
6105;SDS011;3083;51.508;7.966;2024-01-06T00:08:51;13.37;;;7.30;;
6105;SDS011;3083;51.508;7.966;2024-01-06T00:11:20;15.43;;;8.10;;
6105;SDS011;3083;51.508;7.966;2024-01-06T00:13:47;16.80;;;7.93;;
6105;SDS011;3083;51.508;7.966;2024-01-06T00:16:16;17.00;;;7.93;;
6105;SDS011;3083;51.508;7.966;2024-01-06T00:18:45;15.03;;;7.17;;
6105;SDS011;3083;51.508;7.966;2024-01-06T00:21:12;16.93;;;7.93;;
6105;SDS011;3083;51.508;7.966;2024-01-06T00:23:39;16.17;;;8.30;;
6105;SDS011;3083;51.508;7.966;2024-01-06T00:26:06;17.43;;;8.03;;
6105;SDS011;3083;51.508;7.966;2024-01-06T00:28:34;15.90;;;8.30;;
6105;SDS011;3083;51.508;7.966;2024-01-06T00:31:00;17.30;;;9.20;;
6105;SDS011;3083;51.508;7.966;2024-01-06T00:33:27;16.30;;;8.30;;
6105;SDS011;3083;51.508;7.966;2024-01-06T00:35:56;17.67;;;8.80;;
6105;SDS011;3083;51.508;7.966;2024-01-06T00:38:22;17.17;;;7.80;;
6105;SDS011;3083;51.508;7.966;2024-01-06T00:40:49;21.20;;;8.83;;
6105;SDS011;3083;51.508;7.966;2024-01-06T00:43:16;15.03;;;7.53;;
6105;SDS011;3083;51.508;7.966;2024-01-06T00:45:43;15.40;;;7.70;;
6105;SDS011;3083;51.508;7.966;2024-01-06T00:48:10;14.37;;;7.03;;
6105;SDS011;3083;51.508;7.966;2024-01-06T00:50:37;15.90;;;7.40;;
6105;SDS011;3083;51.508;7.966;2024-01-06T00:53:05;14.57;;;7.10;;
6105;SDS011;3083;51.508;7.966;2024-01-06T00:55:32;14.83;;;7.27;;
6105;SDS011;3083;51.508;7.966;2024-01-06T00:57:59;15.23;;;6.63;;
6105;SDS011;3083;51.508;7.966;2024-01-06T01:00:26;15.97;;;7.73;;
6105;SDS011;3083;51.508;7.966;2024-01-06T01:02:53;12.57;;;7.00;;
6105;SDS011;3083;51.508;7.966;2024-01-06T01:05:20;14.27;;;7.30;;
6105;SDS011;3083;51.508;7.966;2024-01-06T01:07:46;12.30;;;6.80;;
6105;SDS011;3083;51.508;7.966;2024-01-06T01:10:15;13.93;;;7.13;;
6105;SDS011;3083;51.508;7.966;2024-01-06T01:12:41;13.40;;;7.50;;
6105;SDS011;3083;51.508;7.966;2024-01-06T01:15:08;15.97;;;7.60;;
6105;SDS011;3083;51.508;7.966;2024-01-06T01:17:35;16.60;;;7.90;;
6105;SDS011;3083;51.508;7.966;2024-01-06T01:20:03;14.80;;;7.53;;
6105;SDS011;3083;51.508;7.966;2024-01-06T01:22:31;17.70;;;8.37;;
6105;SDS011;3083;51.508;7.966;2024-01-06T01:24:57;19.73;;;8.90;;
6105;SDS011;3083;51.508;7.966;2024-01-06T01:27:31;18.90;;;8.70;;
6105;SDS011;3083;51.508;7.966;2024-01-06T01:29:58;17.43;;;8.63;;
6105;SDS011;3083;51.508;7.966;2024-01-06T01:32:26;20.30;;;9.67;;
6105;SDS011;3083;51.508;7.966;2024-01-06T01:34:54;16.90;;;8.43;;
6105;SDS011;3083;51.508;7.966;2024-01-06T01:37:20;19.07;;;8.50;;
6105;SDS011;3083;51.508;7.966;2024-01-06T01:39:47;18.93;;;9.13;;
6105;SDS011;3083;51.508;7.966;2024-01-06T01:42:14;16.17;;;8.73;;
6105;SDS011;3083;51.508;7.966;2024-01-06T01:44:43;17.03;;;8.70;;
6105;SDS011;3083;51.508;7.966;2024-01-06T01:47:10;19.37;;;9.30;;
6105;SDS011;3083;51.508;7.966;2024-01-06T01:49:40;16.87;;;8.80;;
6105;SDS011;3083;51.508;7.966;2024-01-06T01:52:06;18.57;;;9.20;;
6105;SDS011;3083;51.508;7.966;2024-01-06T01:54:34;25.60;;;9.13;;
6105;SDS011;3083;51.508;7.966;2024-01-06T01:57:01;18.10;;;8.87;;
6105;SDS011;3083;51.508;7.966;2024-01-06T01:59:28;19.00;;;9.30;;
6105;SDS011;3083;51.508;7.966;2024-01-06T02:01:57;18.73;;;9.07;;
6105;SDS011;3083;51.508;7.966;2024-01-06T02:04:23;19.40;;;9.37;;
6105;SDS011;3083;51.508;7.966;2024-01-06T02:06:50;22.50;;;9.10;;
6105;SDS011;3083;51.508;7.966;2024-01-06T02:09:17;19.50;;;8.73;;
6105;SDS011;3083;51.508;7.966;2024-01-06T02:11:44;18.23;;;8.60;;
6105;SDS011;3083;51.508;7.966;2024-01-06T02:14:11;18.13;;;9.07;;
6105;SDS011;3083;51.508;7.966;2024-01-06T02:16:38;19.07;;;9.43;;
6105;SDS011;3083;51.508;7.966;2024-01-06T02:19:06;22.93;;;10.57;;
6105;SDS011;3083;51.508;7.966;2024-01-06T02:21:36;19.73;;;9.33;;
6105;SDS011;3083;51.508;7.966;2024-01-06T02:24:10;20.30;;;9.60;;
6105;SDS011;3083;51.508;7.966;2024-01-06T02:26:37;20.13;;;9.13;;
6105;SDS011;3083;51.508;7.966;2024-01-06T02:29:03;20.13;;;8.77;;
6105;SDS011;3083;51.508;7.966;2024-01-06T02:31:30;20.23;;;8.90;;
6105;SDS011;3083;51.508;7.966;2024-01-06T02:33:57;16.87;;;8.33;;
6105;SDS011;3083;51.508;7.966;2024-01-06T02:36:24;18.23;;;8.70;;
6105;SDS011;3083;51.508;7.966;2024-01-06T02:38:51;19.60;;;8.40;;
6105;SDS011;3083;51.508;7.966;2024-01-06T02:41:19;15.70;;;7.57;;
6105;SDS011;3083;51.508;7.966;2024-01-06T02:43:46;15.70;;;7.87;;
6105;SDS011;3083;51.508;7.966;2024-01-06T02:46:13;15.27;;;7.60;;
6105;SDS011;3083;51.508;7.966;2024-01-06T02:48:40;16.13;;;7.20;;
6105;SDS011;3083;51.508;7.966;2024-01-06T02:51:07;16.00;;;7.30;;
6105;SDS011;3083;51.508;7.966;2024-01-06T02:53:33;16.33;;;7.77;;
6105;SDS011;3083;51.508;7.966;2024-01-06T02:56:00;17.03;;;7.90;;
6105;SDS011;3083;51.508;7.966;2024-01-06T02:58:28;16.00;;;7.50;;
6105;SDS011;3083;51.508;7.966;2024-01-06T03:00:55;20.00;;;8.97;;
6105;SDS011;3083;51.508;7.966;2024-01-06T03:03:22;16.37;;;7.80;;
6105;SDS011;3083;51.508;7.966;2024-01-06T03:05:49;15.53;;;7.50;;
6105;SDS011;3083;51.508;7.966;2024-01-06T03:08:16;16.67;;;7.77;;
6105;SDS011;3083;51.508;7.966;2024-01-06T03:10:43;16.93;;;7.97;;
6105;SDS011;3083;51.508;7.966;2024-01-06T03:13:09;19.70;;;8.13;;
6105;SDS011;3083;51.508;7.966;2024-01-06T03:15:38;19.53;;;8.60;;
6105;SDS011;3083;51.508;7.966;2024-01-06T03:18:05;19.90;;;9.33;;
6105;SDS011;3083;51.508;7.966;2024-01-06T03:20:32;19.30;;;9.20;;
6105;SDS011;3083;51.508;7.966;2024-01-06T03:22:58;18.13;;;8.57;;
6105;SDS011;3083;51.508;7.966;2024-01-06T03:25:25;18.03;;;7.97;;
6105;SDS011;3083;51.508;7.966;2024-01-06T03:27:52;16.20;;;8.00;;
6105;SDS011;3083;51.508;7.966;2024-01-06T03:30:19;18.73;;;7.90;;
6105;SDS011;3083;51.508;7.966;2024-01-06T03:32:47;18.27;;;7.63;;
6105;SDS011;3083;51.508;7.966;2024-01-06T03:35:14;17.53;;;7.90;;
6105;SDS011;3083;51.508;7.966;2024-01-06T03:37:41;20.40;;;8.20;;
6105;SDS011;3083;51.508;7.966;2024-01-06T03:40:08;20.77;;;9.20;;
6105;SDS011;3083;51.508;7.966;2024-01-06T03:42:36;20.07;;;8.90;;
6105;SDS011;3083;51.508;7.966;2024-01-06T03:45:03;22.80;;;8.40;;
6105;SDS011;3083;51.508;7.966;2024-01-06T03:47:30;21.33;;;8.90;;
6105;SDS011;3083;51.508;7.966;2024-01-06T03:49:59;22.00;;;9.37;;
6105;SDS011;3083;51.508;7.966;2024-01-06T03:52:25;24.90;;;10.33;;
6105;SDS011;3083;51.508;7.966;2024-01-06T03:54:52;21.20;;;9.00;;
6105;SDS011;3083;51.508;7.966;2024-01-06T03:57:19;22.50;;;9.20;;
6105;SDS011;3083;51.508;7.966;2024-01-06T03:59:46;24.10;;;9.37;;
6105;SDS011;3083;51.508;7.966;2024-01-06T04:02:13;25.93;;;10.17;;
6105;SDS011;3083;51.508;7.966;2024-01-06T04:04:40;20.63;;;8.80;;
6105;SDS011;3083;51.508;7.966;2024-01-06T04:07:08;21.07;;;8.93;;
6105;SDS011;3083;51.508;7.966;2024-01-06T04:09:35;21.00;;;8.80;;
6105;SDS011;3083;51.508;7.966;2024-01-06T04:12:02;24.30;;;10.00;;
6105;SDS011;3083;51.508;7.966;2024-01-06T04:14:29;23.70;;;10.00;;
6105;SDS011;3083;51.508;7.966;2024-01-06T04:16:56;21.87;;;9.20;;
6105;SDS011;3083;51.508;7.966;2024-01-06T04:19:23;20.97;;;9.00;;
6105;SDS011;3083;51.508;7.966;2024-01-06T04:21:49;23.20;;;9.10;;
6105;SDS011;3083;51.508;7.966;2024-01-06T04:24:18;21.30;;;9.10;;
6105;SDS011;3083;51.508;7.966;2024-01-06T04:26:45;20.00;;;8.00;;
6105;SDS011;3083;51.508;7.966;2024-01-06T04:29:12;20.10;;;8.67;;
6105;SDS011;3083;51.508;7.966;2024-01-06T04:31:39;17.20;;;8.37;;
6105;SDS011;3083;51.508;7.966;2024-01-06T04:34:06;17.80;;;7.90;;
6105;SDS011;3083;51.508;7.966;2024-01-06T04:36:33;18.37;;;7.43;;
6105;SDS011;3083;51.508;7.966;2024-01-06T04:39:00;28.77;;;11.67;;
6105;SDS011;3083;51.508;7.966;2024-01-06T04:41:28;35.27;;;11.87;;
6105;SDS011;3083;51.508;7.966;2024-01-06T04:43:55;30.77;;;11.83;;
6105;SDS011;3083;51.508;7.966;2024-01-06T04:46:22;26.67;;;11.50;;
6105;SDS011;3083;51.508;7.966;2024-01-06T04:48:49;31.80;;;10.87;;
6105;SDS011;3083;51.508;7.966;2024-01-06T04:51:16;29.00;;;11.20;;
6105;SDS011;3083;51.508;7.966;2024-01-06T04:53:43;33.97;;;11.73;;
6105;SDS011;3083;51.508;7.966;2024-01-06T04:56:10;31.37;;;11.33;;
6105;SDS011;3083;51.508;7.966;2024-01-06T04:58:38;36.27;;;12.77;;
6105;SDS011;3083;51.508;7.966;2024-01-06T05:01:05;37.40;;;11.77;;
6105;SDS011;3083;51.508;7.966;2024-01-06T05:03:33;34.40;;;11.67;;
6105;SDS011;3083;51.508;7.966;2024-01-06T05:06:00;32.53;;;11.57;;
6105;SDS011;3083;51.508;7.966;2024-01-06T05:08:26;31.80;;;11.40;;
6105;SDS011;3083;51.508;7.966;2024-01-06T05:10:55;33.83;;;12.80;;
6105;SDS011;3083;51.508;7.966;2024-01-06T05:13:23;34.23;;;12.03;;
6105;SDS011;3083;51.508;7.966;2024-01-06T05:15:51;39.20;;;11.57;;
6105;SDS011;3083;51.508;7.966;2024-01-06T05:18:18;38.10;;;13.90;;
6105;SDS011;3083;51.508;7.966;2024-01-06T05:20:45;34.93;;;12.97;;
6105;SDS011;3083;51.508;7.966;2024-01-06T05:23:11;35.03;;;11.60;;
6105;SDS011;3083;51.508;7.966;2024-01-06T05:25:38;37.27;;;12.77;;
6105;SDS011;3083;51.508;7.966;2024-01-06T05:28:04;33.43;;;12.37;;
6105;SDS011;3083;51.508;7.966;2024-01-06T05:30:31;40.63;;;11.90;;
6105;SDS011;3083;51.508;7.966;2024-01-06T05:33:00;33.80;;;11.67;;
6105;SDS011;3083;51.508;7.966;2024-01-06T05:35:27;41.07;;;14.87;;
6105;SDS011;3083;51.508;7.966;2024-01-06T05:37:54;38.57;;;13.53;;
6105;SDS011;3083;51.508;7.966;2024-01-06T05:40:21;33.43;;;12.17;;
6105;SDS011;3083;51.508;7.966;2024-01-06T05:42:48;35.90;;;12.77;;
6105;SDS011;3083;51.508;7.966;2024-01-06T05:45:17;37.07;;;13.27;;
6105;SDS011;3083;51.508;7.966;2024-01-06T05:47:44;32.67;;;11.33;;
6105;SDS011;3083;51.508;7.966;2024-01-06T05:50:14;37.47;;;12.93;;
6105;SDS011;3083;51.508;7.966;2024-01-06T05:52:42;34.63;;;11.50;;
6105;SDS011;3083;51.508;7.966;2024-01-06T05:55:09;35.90;;;12.83;;
6105;SDS011;3083;51.508;7.966;2024-01-06T05:57:36;34.40;;;11.10;;
6105;SDS011;3083;51.508;7.966;2024-01-06T06:00:03;31.27;;;11.80;;
6105;SDS011;3083;51.508;7.966;2024-01-06T06:02:33;36.93;;;12.03;;
6105;SDS011;3083;51.508;7.966;2024-01-06T06:05:00;36.90;;;12.27;;
6105;SDS011;3083;51.508;7.966;2024-01-06T06:07:29;36.07;;;13.00;;
6105;SDS011;3083;51.508;7.966;2024-01-06T06:09:56;34.47;;;12.07;;
6105;SDS011;3083;51.508;7.966;2024-01-06T06:12:23;31.10;;;11.50;;
6105;SDS011;3083;51.508;7.966;2024-01-06T06:14:50;37.90;;;11.37;;
6105;SDS011;3083;51.508;7.966;2024-01-06T06:17:17;37.50;;;11.07;;
6105;SDS011;3083;51.508;7.966;2024-01-06T06:19:44;35.10;;;11.17;;
6105;SDS011;3083;51.508;7.966;2024-01-06T06:22:10;38.93;;;11.23;;
6105;SDS011;3083;51.508;7.966;2024-01-06T06:24:39;37.37;;;11.93;;
6105;SDS011;3083;51.508;7.966;2024-01-06T06:27:06;37.93;;;12.43;;
6105;SDS011;3083;51.508;7.966;2024-01-06T06:29:33;34.90;;;11.87;;
6105;SDS011;3083;51.508;7.966;2024-01-06T06:31:59;35.47;;;11.17;;
6105;SDS011;3083;51.508;7.966;2024-01-06T06:34:26;32.37;;;11.33;;
6105;SDS011;3083;51.508;7.966;2024-01-06T06:36:53;30.97;;;10.67;;
6105;SDS011;3083;51.508;7.966;2024-01-06T06:39:20;40.20;;;10.30;;
6105;SDS011;3083;51.508;7.966;2024-01-06T06:41:48;37.53;;;11.47;;
6105;SDS011;3083;51.508;7.966;2024-01-06T06:44:15;37.17;;;11.63;;
6105;SDS011;3083;51.508;7.966;2024-01-06T06:46:42;37.30;;;12.30;;
6105;SDS011;3083;51.508;7.966;2024-01-06T06:49:09;47.40;;;12.57;;
6105;SDS011;3083;51.508;7.966;2024-01-06T06:51:36;28.43;;;10.50;;
6105;SDS011;3083;51.508;7.966;2024-01-06T06:54:09;37.77;;;11.20;;
6105;SDS011;3083;51.508;7.966;2024-01-06T06:56:36;32.67;;;11.23;;
6105;SDS011;3083;51.508;7.966;2024-01-06T06:59:04;36.53;;;11.17;;
6105;SDS011;3083;51.508;7.966;2024-01-06T07:01:31;40.57;;;11.77;;
6105;SDS011;3083;51.508;7.966;2024-01-06T07:03:59;34.67;;;10.97;;
6105;SDS011;3083;51.508;7.966;2024-01-06T07:06:26;39.30;;;12.33;;
6105;SDS011;3083;51.508;7.966;2024-01-06T07:08:53;33.60;;;10.67;;
6105;SDS011;3083;51.508;7.966;2024-01-06T07:11:20;33.03;;;10.53;;
6105;SDS011;3083;51.508;7.966;2024-01-06T07:13:47;36.57;;;11.23;;
6105;SDS011;3083;51.508;7.966;2024-01-06T07:16:15;38.33;;;10.93;;
6105;SDS011;3083;51.508;7.966;2024-01-06T07:18:42;31.67;;;10.70;;
6105;SDS011;3083;51.508;7.966;2024-01-06T07:21:09;31.57;;;10.53;;
6105;SDS011;3083;51.508;7.966;2024-01-06T07:23:37;37.20;;;11.23;;
6105;SDS011;3083;51.508;7.966;2024-01-06T07:26:04;36.97;;;12.13;;
6105;SDS011;3083;51.508;7.966;2024-01-06T07:28:32;35.83;;;11.03;;
6105;SDS011;3083;51.508;7.966;2024-01-06T07:31:00;29.13;;;9.00;;
6105;SDS011;3083;51.508;7.966;2024-01-06T07:33:28;33.80;;;10.47;;
6105;SDS011;3083;51.508;7.966;2024-01-06T07:35:55;32.80;;;11.90;;
6105;SDS011;3083;51.508;7.966;2024-01-06T07:38:21;24.50;;;8.60;;
6105;SDS011;3083;51.508;7.966;2024-01-06T07:40:48;21.87;;;7.77;;
6105;SDS011;3083;51.508;7.966;2024-01-06T07:43:15;25.20;;;8.23;;
6105;SDS011;3083;51.508;7.966;2024-01-06T07:45:42;22.17;;;7.50;;
6105;SDS011;3083;51.508;7.966;2024-01-06T07:48:09;24.93;;;7.17;;
6105;SDS011;3083;51.508;7.966;2024-01-06T07:50:37;25.37;;;7.70;;
6105;SDS011;3083;51.508;7.966;2024-01-06T07:53:04;29.40;;;9.30;;
6105;SDS011;3083;51.508;7.966;2024-01-06T07:55:31;28.23;;;7.83;;
6105;SDS011;3083;51.508;7.966;2024-01-06T07:57:58;32.30;;;9.10;;
6105;SDS011;3083;51.508;7.966;2024-01-06T08:00:24;24.57;;;8.70;;
6105;SDS011;3083;51.508;7.966;2024-01-06T08:02:51;27.10;;;7.80;;
6105;SDS011;3083;51.508;7.966;2024-01-06T08:05:18;28.57;;;8.90;;
6105;SDS011;3083;51.508;7.966;2024-01-06T08:07:46;21.33;;;8.03;;
6105;SDS011;3083;51.508;7.966;2024-01-06T08:10:14;23.93;;;8.97;;
6105;SDS011;3083;51.508;7.966;2024-01-06T08:12:41;19.87;;;7.00;;
6105;SDS011;3083;51.508;7.966;2024-01-06T08:15:09;29.00;;;9.27;;
6105;SDS011;3083;51.508;7.966;2024-01-06T08:17:36;27.60;;;8.40;;
6105;SDS011;3083;51.508;7.966;2024-01-06T08:20:06;25.23;;;7.53;;
6105;SDS011;3083;51.508;7.966;2024-01-06T08:22:33;28.13;;;9.30;;
6105;SDS011;3083;51.508;7.966;2024-01-06T08:25:01;24.67;;;8.13;;
6105;SDS011;3083;51.508;7.966;2024-01-06T08:27:28;25.43;;;8.60;;
6105;SDS011;3083;51.508;7.966;2024-01-06T08:29:55;27.10;;;8.63;;
6105;SDS011;3083;51.508;7.966;2024-01-06T08:32:22;36.77;;;9.23;;
6105;SDS011;3083;51.508;7.966;2024-01-06T08:34:49;34.03;;;8.70;;
6105;SDS011;3083;51.508;7.966;2024-01-06T08:37:16;28.00;;;8.40;;
6105;SDS011;3083;51.508;7.966;2024-01-06T08:39:43;23.17;;;9.23;;
6105;SDS011;3083;51.508;7.966;2024-01-06T08:42:11;28.20;;;8.73;;
6105;SDS011;3083;51.508;7.966;2024-01-06T08:44:38;26.43;;;8.47;;
6105;SDS011;3083;51.508;7.966;2024-01-06T08:47:05;20.93;;;8.47;;
6105;SDS011;3083;51.508;7.966;2024-01-06T08:49:32;33.83;;;9.30;;
6105;SDS011;3083;51.508;7.966;2024-01-06T08:51:59;32.27;;;10.10;;
6105;SDS011;3083;51.508;7.966;2024-01-06T08:54:26;28.73;;;8.77;;
6105;SDS011;3083;51.508;7.966;2024-01-06T08:56:52;26.20;;;8.70;;
6105;SDS011;3083;51.508;7.966;2024-01-06T08:59:21;27.30;;;8.57;;
6105;SDS011;3083;51.508;7.966;2024-01-06T09:01:47;28.80;;;9.70;;
6105;SDS011;3083;51.508;7.966;2024-01-06T09:04:14;26.97;;;9.63;;
6105;SDS011;3083;51.508;7.966;2024-01-06T09:06:41;27.20;;;8.90;;
6105;SDS011;3083;51.508;7.966;2024-01-06T09:09:08;28.07;;;9.07;;
6105;SDS011;3083;51.508;7.966;2024-01-06T09:11:37;28.80;;;9.87;;
6105;SDS011;3083;51.508;7.966;2024-01-06T09:14:04;26.97;;;9.50;;
6105;SDS011;3083;51.508;7.966;2024-01-06T09:16:32;31.67;;;8.83;;
6105;SDS011;3083;51.508;7.966;2024-01-06T09:18:59;19.77;;;7.63;;
6105;SDS011;3083;51.508;7.966;2024-01-06T09:21:26;17.83;;;7.27;;
6105;SDS011;3083;51.508;7.966;2024-01-06T09:23:53;16.80;;;6.00;;
6105;SDS011;3083;51.508;7.966;2024-01-06T09:26:19;16.73;;;5.47;;
6105;SDS011;3083;51.508;7.966;2024-01-06T09:28:46;16.10;;;6.03;;
6105;SDS011;3083;51.508;7.966;2024-01-06T09:31:14;15.40;;;4.93;;
6105;SDS011;3083;51.508;7.966;2024-01-06T09:33:42;16.87;;;6.10;;
6105;SDS011;3083;51.508;7.966;2024-01-06T09:36:09;17.17;;;5.90;;
6105;SDS011;3083;51.508;7.966;2024-01-06T09:38:37;14.10;;;4.40;;
6105;SDS011;3083;51.508;7.966;2024-01-06T09:41:04;14.33;;;5.27;;
6105;SDS011;3083;51.508;7.966;2024-01-06T09:43:31;16.83;;;6.10;;
6105;SDS011;3083;51.508;7.966;2024-01-06T09:46:01;17.47;;;6.27;;
6105;SDS011;3083;51.508;7.966;2024-01-06T09:48:39;24.80;;;8.00;;
6105;SDS011;3083;51.508;7.966;2024-01-06T09:51:09;14.03;;;6.13;;
6105;SDS011;3083;51.508;7.966;2024-01-06T09:53:40;15.10;;;5.87;;
6105;SDS011;3083;51.508;7.966;2024-01-06T09:56:11;14.30;;;5.30;;
6105;SDS011;3083;51.508;7.966;2024-01-06T09:58:39;16.40;;;5.87;;
6105;SDS011;3083;51.508;7.966;2024-01-06T10:01:07;18.30;;;5.50;;
6105;SDS011;3083;51.508;7.966;2024-01-06T10:03:35;13.87;;;5.47;;
6105;SDS011;3083;51.508;7.966;2024-01-06T10:06:03;21.23;;;6.30;;
6105;SDS011;3083;51.508;7.966;2024-01-06T10:08:30;16.70;;;6.43;;
6105;SDS011;3083;51.508;7.966;2024-01-06T10:11:00;27.10;;;7.70;;
6105;SDS011;3083;51.508;7.966;2024-01-06T10:13:27;17.80;;;6.10;;
6105;SDS011;3083;51.508;7.966;2024-01-06T10:15:55;20.13;;;5.83;;
6105;SDS011;3083;51.508;7.966;2024-01-06T10:18:23;19.57;;;6.23;;
6105;SDS011;3083;51.508;7.966;2024-01-06T10:20:52;23.50;;;6.60;;
6105;SDS011;3083;51.508;7.966;2024-01-06T10:23:24;14.63;;;5.53;;
6105;SDS011;3083;51.508;7.966;2024-01-06T10:25:53;19.70;;;5.80;;
6105;SDS011;3083;51.508;7.966;2024-01-06T10:28:21;18.27;;;6.80;;
6105;SDS011;3083;51.508;7.966;2024-01-06T10:30:49;21.63;;;7.13;;
6105;SDS011;3083;51.508;7.966;2024-01-06T10:33:19;91.37;;;11.70;;
6105;SDS011;3083;51.508;7.966;2024-01-06T10:35:46;115.83;;;14.90;;
6105;SDS011;3083;51.508;7.966;2024-01-06T10:38:13;93.60;;;12.73;;
6105;SDS011;3083;51.508;7.966;2024-01-06T10:40:46;33.73;;;8.33;;
6105;SDS011;3083;51.508;7.966;2024-01-06T10:43:23;31.40;;;8.00;;
6105;SDS011;3083;51.508;7.966;2024-01-06T10:45:52;83.03;;;12.43;;
6105;SDS011;3083;51.508;7.966;2024-01-06T10:48:23;72.73;;;11.47;;
6105;SDS011;3083;51.508;7.966;2024-01-06T10:50:51;44.57;;;9.57;;
6105;SDS011;3083;51.508;7.966;2024-01-06T10:53:20;37.40;;;9.73;;
6105;SDS011;3083;51.508;7.966;2024-01-06T10:55:50;67.27;;;11.50;;
6105;SDS011;3083;51.508;7.966;2024-01-06T10:58:18;42.47;;;9.57;;
6105;SDS011;3083;51.508;7.966;2024-01-06T11:00:45;59.27;;;12.33;;
6105;SDS011;3083;51.508;7.966;2024-01-06T11:03:13;42.33;;;10.00;;
6105;SDS011;3083;51.508;7.966;2024-01-06T11:05:40;40.80;;;9.77;;
6105;SDS011;3083;51.508;7.966;2024-01-06T11:08:08;43.80;;;10.60;;
6105;SDS011;3083;51.508;7.966;2024-01-06T11:10:36;52.13;;;11.67;;
6105;SDS011;3083;51.508;7.966;2024-01-06T11:13:07;46.97;;;12.10;;
6105;SDS011;3083;51.508;7.966;2024-01-06T11:15:39;39.80;;;11.03;;
6105;SDS011;3083;51.508;7.966;2024-01-06T11:18:07;37.93;;;9.77;;
6105;SDS011;3083;51.508;7.966;2024-01-06T11:20:34;36.20;;;9.00;;
6105;SDS011;3083;51.508;7.966;2024-01-06T11:25:44;52.40;;;9.67;;
6105;SDS011;3083;51.508;7.966;2024-01-06T11:28:16;41.83;;;9.67;;
6105;SDS011;3083;51.508;7.966;2024-01-06T11:30:43;29.23;;;8.77;;
6105;SDS011;3083;51.508;7.966;2024-01-06T11:33:10;32.57;;;8.97;;
6105;SDS011;3083;51.508;7.966;2024-01-06T11:35:37;25.27;;;8.13;;
6105;SDS011;3083;51.508;7.966;2024-01-06T11:38:06;24.20;;;8.03;;
6105;SDS011;3083;51.508;7.966;2024-01-06T11:40:34;22.87;;;8.37;;
6105;SDS011;3083;51.508;7.966;2024-01-06T11:43:02;23.53;;;8.67;;
6105;SDS011;3083;51.508;7.966;2024-01-06T11:45:31;24.17;;;8.90;;
6105;SDS011;3083;51.508;7.966;2024-01-06T11:48:00;32.63;;;9.37;;
6105;SDS011;3083;51.508;7.966;2024-01-06T11:50:28;27.47;;;8.33;;
6105;SDS011;3083;51.508;7.966;2024-01-06T11:52:55;26.53;;;9.30;;
6105;SDS011;3083;51.508;7.966;2024-01-06T11:55:22;22.67;;;8.33;;
6105;SDS011;3083;51.508;7.966;2024-01-06T11:57:53;37.07;;;11.17;;
6105;SDS011;3083;51.508;7.966;2024-01-06T12:00:21;47.03;;;10.03;;
6105;SDS011;3083;51.508;7.966;2024-01-06T12:02:49;22.57;;;8.00;;
6105;SDS011;3083;51.508;7.966;2024-01-06T12:05:21;28.40;;;7.67;;
6105;SDS011;3083;51.508;7.966;2024-01-06T12:07:53;30.53;;;8.23;;
6105;SDS011;3083;51.508;7.966;2024-01-06T12:10:21;27.30;;;9.00;;
6105;SDS011;3083;51.508;7.966;2024-01-06T12:12:55;24.10;;;8.90;;
6105;SDS011;3083;51.508;7.966;2024-01-06T12:15:24;29.23;;;9.83;;
6105;SDS011;3083;51.508;7.966;2024-01-06T12:17:52;41.50;;;9.40;;
6105;SDS011;3083;51.508;7.966;2024-01-06T12:20:19;32.10;;;9.13;;
6105;SDS011;3083;51.508;7.966;2024-01-06T12:22:47;24.30;;;9.20;;
6105;SDS011;3083;51.508;7.966;2024-01-06T12:25:14;31.70;;;10.20;;
6105;SDS011;3083;51.508;7.966;2024-01-06T12:27:42;29.27;;;10.57;;
6105;SDS011;3083;51.508;7.966;2024-01-06T12:30:12;31.23;;;10.23;;
6105;SDS011;3083;51.508;7.966;2024-01-06T12:32:42;36.00;;;10.90;;
6105;SDS011;3083;51.508;7.966;2024-01-06T12:35:12;37.53;;;10.70;;
6105;SDS011;3083;51.508;7.966;2024-01-06T12:37:41;29.43;;;8.33;;
6105;SDS011;3083;51.508;7.966;2024-01-06T12:40:09;28.63;;;8.63;;
6105;SDS011;3083;51.508;7.966;2024-01-06T12:42:36;25.90;;;8.30;;
6105;SDS011;3083;51.508;7.966;2024-01-06T12:45:04;23.07;;;8.40;;
6105;SDS011;3083;51.508;7.966;2024-01-06T12:47:32;24.97;;;8.27;;
6105;SDS011;3083;51.508;7.966;2024-01-06T12:49:59;22.93;;;6.93;;
6105;SDS011;3083;51.508;7.966;2024-01-06T12:52:28;25.80;;;9.07;;
6105;SDS011;3083;51.508;7.966;2024-01-06T12:54:54;28.13;;;8.60;;
6105;SDS011;3083;51.508;7.966;2024-01-06T12:57:21;28.50;;;8.57;;
6105;SDS011;3083;51.508;7.966;2024-01-06T12:59:48;26.07;;;8.20;;
6105;SDS011;3083;51.508;7.966;2024-01-06T13:02:15;42.57;;;9.90;;
6105;SDS011;3083;51.508;7.966;2024-01-06T13:04:42;32.50;;;9.13;;
6105;SDS011;3083;51.508;7.966;2024-01-06T13:07:09;30.33;;;8.50;;
6105;SDS011;3083;51.508;7.966;2024-01-06T13:09:38;26.07;;;7.67;;
6105;SDS011;3083;51.508;7.966;2024-01-06T13:12:06;27.27;;;9.30;;
6105;SDS011;3083;51.508;7.966;2024-01-06T13:14:33;31.03;;;9.87;;
6105;SDS011;3083;51.508;7.966;2024-01-06T13:17:00;32.53;;;9.17;;
6105;SDS011;3083;51.508;7.966;2024-01-06T13:19:28;32.57;;;10.70;;
6105;SDS011;3083;51.508;7.966;2024-01-06T13:21:55;41.93;;;10.33;;
6105;SDS011;3083;51.508;7.966;2024-01-06T13:24:21;27.03;;;9.40;;
6105;SDS011;3083;51.508;7.966;2024-01-06T13:26:50;35.57;;;10.00;;
6105;SDS011;3083;51.508;7.966;2024-01-06T13:29:17;29.77;;;9.33;;
6105;SDS011;3083;51.508;7.966;2024-01-06T13:31:45;28.13;;;9.97;;
6105;SDS011;3083;51.508;7.966;2024-01-06T13:34:12;29.93;;;10.17;;
6105;SDS011;3083;51.508;7.966;2024-01-06T13:36:39;29.63;;;10.20;;
6105;SDS011;3083;51.508;7.966;2024-01-06T13:39:06;26.50;;;9.63;;
6105;SDS011;3083;51.508;7.966;2024-01-06T13:41:33;22.83;;;7.80;;
6105;SDS011;3083;51.508;7.966;2024-01-06T13:44:01;27.80;;;10.67;;
6105;SDS011;3083;51.508;7.966;2024-01-06T13:46:28;27.47;;;10.40;;
6105;SDS011;3083;51.508;7.966;2024-01-06T13:48:55;31.57;;;10.60;;
6105;SDS011;3083;51.508;7.966;2024-01-06T13:51:21;35.10;;;11.90;;
6105;SDS011;3083;51.508;7.966;2024-01-06T13:53:50;28.93;;;9.77;;
6105;SDS011;3083;51.508;7.966;2024-01-06T13:56:17;30.53;;;10.60;;
6105;SDS011;3083;51.508;7.966;2024-01-06T13:58:44;33.60;;;10.00;;
6105;SDS011;3083;51.508;7.966;2024-01-06T14:01:13;31.60;;;10.87;;
6105;SDS011;3083;51.508;7.966;2024-01-06T14:03:40;25.30;;;7.73;;
6105;SDS011;3083;51.508;7.966;2024-01-06T14:06:07;28.20;;;10.03;;
6105;SDS011;3083;51.508;7.966;2024-01-06T14:08:34;24.77;;;8.20;;
6105;SDS011;3083;51.508;7.966;2024-01-06T14:11:01;29.63;;;10.93;;
6105;SDS011;3083;51.508;7.966;2024-01-06T14:13:28;31.03;;;10.53;;
6105;SDS011;3083;51.508;7.966;2024-01-06T14:15:54;28.03;;;9.77;;
6105;SDS011;3083;51.508;7.966;2024-01-06T14:18:23;24.13;;;9.93;;
6105;SDS011;3083;51.508;7.966;2024-01-06T14:20:52;28.10;;;8.23;;
6105;SDS011;3083;51.508;7.966;2024-01-06T14:23:20;20.40;;;7.53;;
6105;SDS011;3083;51.508;7.966;2024-01-06T14:25:49;28.50;;;9.77;;
6105;SDS011;3083;51.508;7.966;2024-01-06T14:28:18;25.17;;;9.10;;
6105;SDS011;3083;51.508;7.966;2024-01-06T14:30:45;23.13;;;9.00;;
6105;SDS011;3083;51.508;7.966;2024-01-06T14:33:12;23.77;;;7.43;;
6105;SDS011;3083;51.508;7.966;2024-01-06T14:35:40;24.07;;;8.27;;
6105;SDS011;3083;51.508;7.966;2024-01-06T14:38:09;21.00;;;7.53;;
6105;SDS011;3083;51.508;7.966;2024-01-06T14:40:36;22.87;;;8.03;;
6105;SDS011;3083;51.508;7.966;2024-01-06T14:43:03;20.07;;;7.23;;
6105;SDS011;3083;51.508;7.966;2024-01-06T14:45:30;17.13;;;6.87;;
6105;SDS011;3083;51.508;7.966;2024-01-06T14:47:57;18.37;;;7.10;;
6105;SDS011;3083;51.508;7.966;2024-01-06T14:50:24;24.33;;;8.23;;
6105;SDS011;3083;51.508;7.966;2024-01-06T14:52:53;21.37;;;7.97;;
6105;SDS011;3083;51.508;7.966;2024-01-06T14:55:19;20.57;;;7.50;;
6105;SDS011;3083;51.508;7.966;2024-01-06T14:57:47;18.40;;;6.90;;
6105;SDS011;3083;51.508;7.966;2024-01-06T15:00:14;23.40;;;7.73;;
6105;SDS011;3083;51.508;7.966;2024-01-06T15:02:41;18.27;;;6.60;;